createdAt,value
2023-02-07T00:01:35.086Z,72.71
2023-02-07T00:04:03.937Z,73.25
2023-02-07T00:06:35.196Z,73.65
2023-02-07T00:09:06.644Z,72.74
2023-02-07T00:11:36.931Z,73.20
2023-02-07T00:14:05.188Z,73.08
2023-02-07T00:16:34.151Z,72.57
2023-02-07T00:19:02.377Z,72.48
2023-02-07T00:21:30.553Z,72.47
2023-02-07T00:23:58.927Z,72.67
2023-02-07T00:26:28.433Z,73.66
2023-02-07T00:28:57.727Z,73.76
2023-02-07T00:31:29.093Z,73.98
2023-02-07T00:34:01.518Z,73.17
2023-02-07T00:36:31.298Z,72.83
2023-02-07T00:39:02.303Z,72.47
2023-02-07T00:41:31.417Z,72.36
2023-02-07T00:44:01.514Z,72.24
2023-02-07T00:46:31.031Z,72.49
2023-02-07T00:48:59.314Z,72.81
2023-02-07T00:51:27.682Z,72.70
2023-02-07T00:53:57.340Z,73.07
2023-02-07T00:56:27.883Z,72.76
2023-02-07T00:58:56.806Z,72.53
2023-02-07T01:01:27.600Z,73.02
2023-02-07T01:03:58.028Z,73.43
2023-02-07T01:06:28.195Z,73.54
2023-02-07T01:08:59.239Z,72.97
2023-02-07T01:11:29.955Z,72.69
2023-02-07T01:14:01.126Z,72.63
2023-02-07T01:16:35.037Z,72.27
2023-02-07T01:19:07.620Z,72.10
2023-02-07T01:21:36.373Z,71.63
2023-02-07T01:24:07.653Z,72.46
2023-02-07T01:26:37.377Z,72.60
2023-02-07T01:29:06.227Z,72.69
2023-02-07T01:31:34.452Z,72.68
2023-02-07T01:34:05.411Z,72.38
2023-02-07T01:36:34.235Z,72.27
2023-02-07T01:39:04.140Z,72.16
2023-02-07T01:41:35.888Z,71.93
2023-02-07T01:44:08.779Z,72.66
2023-02-07T01:46:37.701Z,72.70
2023-02-07T01:49:10.130Z,73.00
2023-02-07T01:51:44.482Z,73.36
2023-02-07T01:54:14.098Z,73.80
2023-02-07T01:56:46.995Z,74.27
2023-02-07T01:59:16.757Z,74.77
2023-02-07T02:01:46.532Z,75.01
2023-02-07T02:04:14.637Z,74.56
2023-02-07T02:06:44.250Z,73.74
2023-02-07T02:09:16.626Z,73.10
2023-02-07T02:12:02.546Z,73.01
2023-02-07T02:14:30.783Z,73.00
2023-02-07T02:17:10.123Z,72.48
2023-02-07T02:20:00.204Z,72.74
2023-02-07T02:23:06.151Z,73.41
2023-02-07T02:26:03.110Z,73.50
2023-02-07T02:29:09.707Z,73.56
2023-02-07T02:31:57.194Z,73.67
2023-02-07T02:34:31.531Z,73.46
2023-02-07T02:37:17.936Z,73.36
2023-02-07T02:40:01.403Z,74.49
2023-02-07T02:42:42.445Z,74.56
2023-02-07T02:45:24.332Z,75.14
2023-02-07T02:47:54.233Z,74.90
2023-02-07T02:50:26.952Z,74.54
2023-02-07T02:52:55.644Z,73.97
2023-02-07T02:55:41.705Z,73.61
2023-02-07T02:58:25.242Z,73.90
2023-02-07T03:00:56.835Z,73.83
2023-02-07T03:03:55.016Z,73.61
2023-02-07T03:06:44.752Z,73.00
2023-02-07T03:09:37.815Z,73.03
2023-02-07T03:12:30.767Z,72.85
2023-02-07T03:15:12.382Z,73.41
2023-02-07T03:17:56.294Z,73.08
2023-02-07T03:20:33.075Z,73.00
2023-02-07T03:23:04.714Z,74.53
2023-02-07T03:25:33.728Z,74.55
2023-02-07T03:28:05.108Z,74.12
2023-02-07T03:30:36.247Z,74.12
2023-02-07T03:33:10.130Z,74.23
2023-02-07T03:35:44.528Z,74.20
2023-02-07T03:38:13.888Z,73.93
2023-02-07T03:40:48.300Z,73.55
2023-02-07T03:43:20.944Z,73.33
2023-02-07T03:45:49.101Z,73.04
2023-02-07T03:48:17.375Z,72.97
2023-02-07T03:50:47.698Z,73.43
2023-02-07T03:53:16.065Z,74.25
2023-02-07T03:55:44.252Z,75.21
2023-02-07T03:58:12.580Z,74.83
2023-02-07T04:00:41.057Z,74.35
2023-02-07T04:03:09.289Z,73.96
2023-02-07T04:05:37.792Z,74.06
2023-02-07T04:08:06.466Z,74.16
2023-02-07T04:10:34.855Z,74.06
2023-02-07T04:13:03.223Z,73.88
2023-02-07T04:15:32.095Z,73.98
2023-02-07T04:18:00.123Z,73.99
2023-02-07T04:20:28.168Z,75.57
2023-02-07T04:22:56.154Z,75.68
2023-02-07T04:25:24.280Z,75.89
2023-02-07T04:27:52.745Z,76.47
2023-02-07T04:30:20.896Z,76.00
2023-02-07T04:32:48.988Z,75.38
2023-02-07T04:35:17.072Z,74.90
2023-02-07T04:37:45.451Z,75.42
2023-02-07T04:40:13.464Z,75.19
2023-02-07T04:42:41.595Z,74.95
2023-02-07T04:45:10.219Z,74.61
2023-02-07T04:47:38.281Z,74.29
2023-02-07T04:50:06.892Z,74.10
2023-02-07T04:52:34.888Z,73.50
2023-02-07T04:55:03.993Z,72.74
2023-02-07T04:57:32.168Z,73.13
2023-02-07T05:00:00.263Z,73.62
2023-02-07T05:02:28.441Z,74.22
2023-02-07T05:04:57.013Z,74.54
2023-02-07T05:07:25.169Z,74.70
2023-02-07T05:09:53.861Z,74.65
2023-02-07T05:12:21.990Z,74.47
2023-02-07T05:14:50.125Z,74.09
2023-02-07T05:17:18.280Z,74.80
2023-02-07T05:19:46.335Z,75.06
2023-02-07T05:22:14.527Z,74.91
2023-02-07T05:24:44.030Z,74.40
2023-02-07T05:27:12.510Z,74.05
2023-02-07T05:29:40.651Z,74.34
2023-02-07T05:32:31.598Z,74.78
2023-02-07T05:35:00.728Z,74.84
2023-02-07T05:37:28.726Z,74.48
2023-02-07T05:39:56.930Z,73.77
2023-02-07T05:42:25.173Z,73.92
2023-02-07T05:44:53.993Z,73.86
2023-02-07T05:47:22.367Z,74.41
2023-02-07T05:49:50.540Z,75.28
2023-02-07T05:52:18.732Z,75.69
2023-02-07T05:54:46.785Z,75.64
2023-02-07T05:57:14.884Z,76.25
2023-02-07T05:59:43.147Z,76.59
2023-02-07T06:02:11.390Z,76.90
2023-02-07T06:04:39.576Z,76.63
2023-02-07T06:07:07.733Z,76.30
2023-02-07T06:09:36.123Z,76.19
2023-02-07T06:12:05.356Z,75.63
2023-02-07T06:14:33.598Z,76.07
2023-02-07T06:17:01.672Z,75.76
2023-02-07T06:19:29.925Z,75.74
2023-02-07T06:21:59.346Z,75.79
2023-02-07T06:24:27.621Z,75.03
2023-02-07T06:26:55.824Z,74.52
2023-02-07T06:29:23.939Z,74.50
2023-02-07T06:31:52.153Z,74.26
2023-02-07T06:34:20.733Z,74.43
2023-02-07T06:36:48.981Z,74.61
2023-02-07T06:39:17.280Z,74.40
2023-02-07T06:41:45.656Z,75.03
2023-02-07T06:44:13.932Z,75.07
2023-02-07T06:46:42.110Z,75.56
2023-02-07T06:49:11.342Z,75.91
2023-02-07T06:51:39.476Z,75.22
2023-02-07T06:54:10.110Z,75.22
2023-02-07T06:56:38.209Z,75.23
2023-02-07T06:59:06.474Z,75.10
2023-02-07T07:01:34.840Z,74.89
2023-02-07T07:04:03.008Z,75.54
2023-02-07T07:06:31.500Z,75.75
2023-02-07T07:08:59.665Z,75.73
2023-02-07T07:11:27.802Z,75.37
2023-02-07T07:13:56.014Z,75.26
2023-02-07T07:16:24.212Z,74.87
2023-02-07T07:18:52.406Z,74.55
2023-02-07T07:21:20.672Z,74.19
2023-02-07T07:23:48.824Z,73.99
2023-02-07T07:26:16.982Z,73.74
2023-02-07T07:28:45.572Z,73.51
2023-02-07T07:31:14.133Z,73.57
2023-02-07T07:33:42.632Z,73.14
2023-02-07T07:36:10.888Z,73.10
2023-02-07T07:38:40.078Z,72.76
2023-02-07T07:41:08.567Z,72.37
2023-02-07T07:43:36.634Z,71.72
2023-02-07T07:46:04.932Z,70.94
2023-02-07T07:48:33.373Z,70.43
2023-02-07T07:51:01.680Z,70.15
2023-02-07T07:53:29.858Z,69.56
2023-02-07T07:55:58.038Z,69.12
2023-02-07T07:58:27.160Z,69.06
2023-02-07T08:00:55.476Z,67.90
2023-02-07T08:03:24.183Z,67.09
2023-02-07T08:05:52.565Z,66.44
2023-02-07T08:08:20.734Z,66.23
2023-02-07T08:10:49.623Z,65.96
2023-02-07T08:13:18.620Z,64.80
2023-02-07T08:15:46.901Z,63.78
2023-02-07T08:18:15.041Z,63.32
2023-02-07T08:20:43.700Z,61.94
2023-02-07T08:23:12.212Z,61.63
2023-02-07T08:25:41.588Z,61.30
2023-02-07T08:28:10.876Z,60.39
2023-02-07T08:30:39.687Z,60.44
2023-02-07T08:33:08.717Z,60.62
2023-02-07T08:35:36.912Z,59.71
2023-02-07T08:38:05.110Z,59.66
2023-02-07T08:40:33.242Z,59.21
2023-02-07T08:43:01.378Z,59.09
2023-02-07T08:45:29.525Z,57.97
2023-02-07T08:47:57.662Z,57.40
2023-02-07T08:50:25.829Z,57.23
2023-02-07T08:52:54.021Z,56.08
2023-02-07T08:55:22.382Z,56.16
2023-02-07T08:57:50.458Z,56.34
2023-02-07T09:00:19.047Z,56.41
2023-02-07T09:02:47.597Z,55.95
2023-02-07T09:05:16.036Z,55.09
2023-02-07T09:07:44.377Z,54.12
2023-02-07T09:10:12.651Z,53.91
2023-02-07T09:12:40.824Z,52.79
2023-02-07T09:15:09.613Z,53.02
2023-02-07T09:17:37.908Z,51.91
2023-02-07T09:20:07.048Z,50.93
2023-02-07T09:22:55.239Z,50.32
2023-02-07T09:25:24.023Z,50.02
2023-02-07T09:27:52.340Z,50.69
2023-02-07T09:30:20.467Z,50.67
2023-02-07T09:32:48.584Z,50.44
2023-02-07T09:35:16.713Z,51.02
2023-02-07T09:37:49.673Z,50.91
2023-02-07T09:40:19.709Z,49.83
2023-02-07T09:43:03.788Z,49.70
2023-02-07T09:45:38.893Z,49.64
2023-02-07T09:48:24.992Z,48.55
2023-02-07T09:50:56.272Z,47.61
2023-02-07T09:53:57.913Z,47.19
2023-02-07T09:56:29.702Z,47.64
2023-02-07T09:59:00.920Z,47.92
2023-02-07T10:01:44.341Z,47.45
2023-02-07T10:04:18.454Z,47.31
2023-02-07T10:06:52.752Z,47.36
2023-02-07T10:09:42.394Z,46.45
2023-02-07T10:12:39.217Z,46.00
2023-02-07T10:15:36.458Z,46.07
2023-02-07T10:18:23.082Z,46.55
2023-02-07T10:21:03.655Z,46.01
2023-02-07T10:24:05.389Z,45.47
2023-02-07T10:26:41.021Z,45.83
2023-02-07T10:29:17.786Z,43.97
2023-02-07T10:31:54.010Z,43.99
2023-02-07T10:34:31.846Z,43.85
2023-02-07T10:37:02.432Z,43.55
2023-02-07T10:39:39.600Z,41.86
2023-02-07T10:42:15.418Z,41.68
2023-02-07T10:44:44.213Z,41.05
2023-02-07T10:47:19.243Z,40.60
2023-02-07T10:49:50.840Z,40.02
2023-02-07T10:52:39.971Z,39.29
2023-02-07T10:55:10.483Z,39.19
2023-02-07T10:57:39.596Z,38.19
2023-02-07T11:00:30.144Z,38.76
2023-02-07T11:03:06.961Z,38.58
2023-02-07T11:05:41.565Z,37.57
2023-02-07T11:08:15.586Z,38.18
2023-02-07T11:10:45.563Z,37.71
2023-02-07T11:13:16.575Z,37.32
2023-02-07T11:16:04.210Z,37.59
2023-02-07T11:18:54.058Z,36.58
2023-02-07T11:21:34.216Z,36.54
2023-02-07T11:24:19.554Z,36.14
2023-02-07T11:26:53.522Z,36.30
2023-02-07T11:29:25.098Z,35.95
2023-02-07T11:31:55.860Z,36.22
2023-02-07T11:34:44.232Z,35.49
2023-02-07T11:37:30.653Z,35.26
2023-02-07T11:40:31.167Z,35.08
2023-02-07T11:43:12.648Z,35.05
2023-02-07T11:45:45.026Z,34.26
2023-02-07T11:48:26.913Z,33.49
2023-02-07T11:50:58.262Z,33.02
2023-02-07T11:53:40.433Z,32.69
2023-02-07T11:56:41.208Z,31.07
2023-02-07T11:59:36.312Z,31.20
2023-02-07T12:02:18.954Z,30.72
2023-02-07T12:04:47.557Z,30.94
2023-02-07T12:07:25.956Z,29.88
2023-02-07T12:09:59.658Z,28.94
2023-02-07T12:12:43.975Z,29.34
2023-02-07T12:15:23.745Z,30.35
2023-02-07T12:18:10.054Z,30.55
2023-02-07T12:21:01.027Z,30.58
2023-02-07T12:23:45.388Z,30.94
2023-02-07T12:26:36.803Z,30.94
2023-02-07T12:29:21.872Z,31.09
2023-02-07T12:32:02.375Z,32.17
2023-02-07T12:34:49.162Z,32.41
2023-02-07T12:37:32.747Z,32.57
2023-02-07T12:40:29.315Z,32.79
2023-02-07T12:43:12.690Z,33.05
2023-02-07T12:45:56.012Z,32.46
2023-02-07T12:48:42.788Z,32.17
2023-02-07T12:51:19.768Z,32.24
2023-02-07T12:54:30.330Z,32.40
2023-02-07T12:57:08.373Z,32.45
2023-02-07T12:59:40.529Z,33.04
2023-02-07T13:02:29.341Z,32.98
2023-02-07T13:05:25.283Z,33.55
2023-02-07T13:08:38.406Z,33.58
2023-02-07T13:11:25.878Z,33.43
2023-02-07T13:14:12.530Z,33.74
2023-02-07T13:16:59.141Z,33.62
2023-02-07T13:19:44.727Z,33.17
2023-02-07T13:22:18.732Z,33.28
2023-02-07T13:24:48.190Z,32.92
2023-02-07T13:27:22.040Z,32.75
2023-02-07T13:29:51.528Z,32.50
2023-02-07T13:32:24.630Z,33.36
2023-02-07T13:34:58.379Z,32.82
2023-02-07T13:37:53.048Z,32.33
2023-02-07T13:40:34.409Z,32.30
2023-02-07T13:44:01.569Z,32.81
2023-02-07T13:46:55.870Z,32.97
2023-02-07T13:49:53.870Z,32.66
2023-02-07T13:52:28.050Z,32.61
2023-02-07T13:55:15.372Z,32.78
2023-02-07T13:58:03.216Z,32.92
2023-02-07T14:00:52.969Z,33.80
2023-02-07T14:03:27.897Z,34.19
2023-02-07T14:06:14.480Z,34.52
2023-02-07T14:08:45.015Z,35.11
2023-02-07T14:11:32.805Z,36.90
2023-02-07T14:14:07.117Z,38.70
2023-02-07T14:16:51.571Z,40.45
2023-02-07T14:19:41.672Z,41.70
2023-02-07T14:22:31.428Z,43.01
2023-02-07T14:24:59.753Z,46.19
2023-02-07T14:27:35.392Z,46.60
2023-02-07T14:30:12.695Z,47.91
2023-02-07T14:33:12.159Z,49.58
2023-02-07T14:36:14.241Z,49.09
2023-02-07T14:38:58.882Z,49.93
2023-02-07T14:41:36.921Z,51.48
2023-02-07T14:44:35.845Z,52.66
2023-02-07T14:47:06.733Z,52.51
2023-02-07T14:49:51.290Z,52.01
2023-02-07T14:52:39.114Z,51.84
2023-02-07T14:55:22.353Z,53.58
2023-02-07T14:58:01.254Z,52.84
2023-02-07T15:00:48.920Z,54.48
2023-02-07T15:03:19.445Z,54.24
2023-02-07T15:06:01.532Z,55.57
2023-02-07T15:08:34.463Z,55.38
2023-02-07T15:11:05.518Z,56.63
2023-02-07T15:13:44.073Z,55.87
2023-02-07T15:16:19.737Z,57.29
2023-02-07T15:18:53.638Z,57.01
2023-02-07T15:21:43.084Z,56.77
2023-02-07T15:24:37.137Z,58.03
2023-02-07T15:27:27.777Z,58.33
2023-02-07T15:29:57.405Z,58.96
2023-02-07T15:32:33.165Z,58.74
2023-02-07T15:35:40.778Z,58.08
2023-02-07T15:38:23.289Z,58.40
2023-02-07T15:40:53.639Z,59.32
2023-02-07T15:43:33.747Z,59.46
2023-02-07T15:46:11.424Z,61.35
2023-02-07T15:48:49.388Z,62.26
2023-02-07T15:51:21.099Z,62.19
2023-02-07T15:53:51.961Z,62.23
2023-02-07T15:56:20.310Z,61.57
2023-02-07T15:58:50.174Z,62.31
2023-02-07T16:01:39.415Z,62.83
2023-02-07T16:04:09.618Z,62.24
2023-02-07T16:06:37.852Z,62.22
2023-02-07T16:09:06.172Z,63.50
2023-02-07T16:11:37.658Z,62.87
2023-02-07T16:14:25.936Z,62.58
2023-02-07T16:16:56.301Z,62.41
2023-02-07T16:19:28.225Z,62.77
2023-02-07T16:22:27.515Z,63.19
2023-02-07T16:24:59.897Z,63.20
2023-02-07T16:27:31.976Z,63.35
2023-02-07T16:30:03.619Z,63.98
2023-02-07T16:32:34.141Z,65.64
2023-02-07T16:35:02.157Z,65.36
2023-02-07T16:37:30.431Z,65.86
2023-02-07T16:39:58.867Z,66.03
2023-02-07T16:42:27.031Z,65.39
2023-02-07T16:44:55.114Z,65.15
2023-02-07T16:47:23.892Z,65.09
2023-02-07T16:49:51.993Z,64.79
2023-02-07T16:52:20.045Z,64.64
2023-02-07T16:54:48.519Z,64.52
2023-02-07T16:57:17.099Z,65.05
2023-02-07T16:59:45.179Z,65.83
2023-02-07T17:02:16.783Z,65.86
2023-02-07T17:04:45.149Z,65.59
2023-02-07T17:07:13.389Z,65.19
2023-02-07T17:09:43.184Z,65.79
2023-02-07T17:12:11.260Z,65.69
2023-02-07T17:14:39.431Z,65.70
2023-02-07T17:17:07.913Z,65.65
2023-02-07T17:19:35.983Z,65.61
2023-02-07T17:22:05.079Z,65.59
2023-02-07T17:24:33.171Z,65.56
2023-02-07T17:27:01.464Z,65.47
2023-02-07T17:29:30.218Z,65.85
2023-02-07T17:31:58.330Z,65.74
2023-02-07T17:34:27.099Z,66.83
2023-02-07T17:36:55.159Z,66.26
2023-02-07T17:39:23.315Z,66.37
2023-02-07T17:41:51.360Z,66.96
2023-02-07T17:44:22.446Z,67.02
2023-02-07T17:46:50.479Z,67.20
2023-02-07T17:49:18.669Z,66.88
2023-02-07T17:51:47.058Z,67.29
2023-02-07T17:54:15.072Z,67.26
2023-02-07T17:56:43.397Z,67.64
2023-02-07T17:59:23.624Z,67.27
2023-02-07T18:01:52.134Z,67.89
2023-02-07T18:04:20.408Z,68.40
2023-02-07T18:06:49.297Z,69.14
2023-02-07T18:09:19.873Z,69.33
2023-02-07T18:11:49.120Z,68.88
2023-02-07T18:14:17.124Z,68.55
2023-02-07T18:16:46.288Z,67.91
2023-02-07T18:19:18.560Z,67.91
2023-02-07T18:21:47.043Z,67.36
2023-02-07T18:24:15.319Z,67.93
2023-02-07T18:26:46.583Z,68.61
2023-02-07T18:29:14.849Z,69.44
2023-02-07T18:31:43.693Z,69.06
2023-02-07T18:34:12.023Z,69.50
2023-02-07T18:36:40.804Z,69.76
2023-02-07T18:39:11.112Z,69.24
2023-02-07T18:41:39.527Z,69.01
2023-02-07T18:44:08.077Z,68.59
2023-02-07T18:46:36.248Z,68.66
2023-02-07T18:49:04.309Z,68.92
2023-02-07T18:51:34.235Z,68.71
2023-02-07T18:54:02.450Z,69.53
2023-02-07T18:56:30.989Z,69.55
2023-02-07T18:58:59.291Z,69.78
2023-02-07T19:01:30.477Z,70.64
2023-02-07T19:04:01.639Z,71.37
2023-02-07T19:06:32.738Z,71.98
2023-02-07T19:09:00.980Z,72.78
2023-02-07T19:11:29.144Z,72.16
2023-02-07T19:13:57.352Z,71.76
2023-02-07T19:16:25.601Z,71.59
2023-02-07T19:18:54.068Z,71.84
2023-02-07T19:21:27.239Z,71.64
2023-02-07T19:23:57.163Z,72.03
2023-02-07T19:26:25.532Z,71.93
2023-02-07T19:28:53.829Z,71.34
2023-02-07T19:31:22.900Z,70.27
2023-02-07T19:33:52.252Z,69.53
2023-02-07T19:36:23.263Z,69.34
2023-02-07T19:38:55.035Z,69.16
2023-02-07T19:41:28.524Z,69.97
2023-02-07T19:43:57.335Z,69.75
2023-02-07T19:46:25.496Z,70.40
2023-02-07T19:48:54.894Z,70.66
2023-02-07T19:51:25.352Z,70.71
2023-02-07T19:53:54.810Z,70.23
2023-02-07T19:56:25.074Z,70.92
2023-02-07T19:58:54.766Z,71.22
2023-02-07T20:01:25.559Z,71.67
2023-02-07T20:03:55.870Z,71.31
2023-02-07T20:06:29.293Z,70.85
2023-02-07T20:08:59.021Z,70.50
2023-02-07T20:11:28.259Z,70.59
2023-02-07T20:14:03.488Z,70.23
2023-02-07T20:16:36.806Z,70.22
2023-02-07T20:19:07.960Z,70.41
2023-02-07T20:21:37.192Z,70.64
2023-02-07T20:24:05.901Z,70.59
2023-02-07T20:26:44.458Z,70.62
2023-02-07T20:29:17.502Z,70.87
2023-02-07T20:31:47.550Z,70.75
2023-02-07T20:34:16.581Z,70.26
2023-02-07T20:36:44.769Z,70.18
2023-02-07T20:39:16.770Z,69.94
2023-02-07T20:41:47.008Z,69.40
2023-02-07T20:44:21.351Z,68.92
2023-02-07T20:46:50.970Z,68.71
2023-02-07T20:49:22.474Z,68.57
2023-02-07T20:51:51.933Z,69.40
2023-02-07T20:54:23.923Z,70.13
2023-02-07T20:56:53.813Z,70.32
2023-02-07T20:59:24.868Z,69.69
2023-02-07T21:01:54.383Z,68.92
2023-02-07T21:04:23.249Z,69.83
2023-02-07T21:06:52.765Z,70.25
2023-02-07T21:09:21.082Z,69.71
2023-02-07T21:11:51.554Z,69.29
2023-02-07T21:14:30.900Z,69.27
2023-02-07T21:17:02.138Z,69.45
2023-02-07T21:19:30.318Z,69.68
2023-02-07T21:21:58.930Z,69.78
2023-02-07T21:24:27.481Z,69.77
2023-02-07T21:26:58.060Z,70.14
2023-02-07T21:29:28.141Z,70.07
2023-02-07T21:31:56.382Z,70.80
2023-02-07T21:34:25.772Z,70.80
2023-02-07T21:36:54.701Z,71.32
2023-02-07T21:39:24.471Z,71.35
2023-02-07T21:41:52.776Z,70.85
2023-02-07T21:44:22.312Z,71.45
2023-02-07T21:46:51.490Z,71.40
2023-02-07T21:49:21.047Z,71.69
2023-02-07T21:51:51.266Z,71.53
2023-02-07T21:54:19.885Z,71.20
2023-02-07T21:56:49.810Z,70.97
2023-02-07T21:59:20.479Z,70.66
2023-02-07T22:01:48.959Z,70.75
2023-02-07T22:04:18.026Z,70.60
2023-02-07T22:06:48.195Z,71.01
2023-02-07T22:09:18.531Z,70.76
2023-02-07T22:11:46.573Z,71.23
2023-02-07T22:14:16.031Z,70.73
2023-02-07T22:16:44.278Z,71.47
2023-02-07T22:19:14.766Z,71.19
2023-02-07T22:21:44.372Z,71.22
2023-02-07T22:24:14.689Z,71.58
2023-02-07T22:26:43.264Z,71.17
2023-02-07T22:29:12.245Z,71.60
2023-02-07T22:31:41.731Z,71.20
2023-02-07T22:34:12.291Z,71.69
2023-02-07T22:36:43.402Z,71.99
2023-02-07T22:39:14.150Z,72.18
2023-02-07T22:41:42.633Z,71.75
2023-02-07T22:44:11.456Z,71.58
2023-02-07T22:46:39.931Z,71.21
2023-02-07T22:49:08.169Z,71.77
2023-02-07T22:51:37.759Z,72.28
2023-02-07T22:54:08.789Z,71.75
2023-02-07T22:56:38.356Z,71.82
2023-02-07T22:59:06.922Z,71.45
2023-02-07T23:01:39.405Z,71.01
2023-02-07T23:04:13.439Z,71.80
2023-02-07T23:06:41.867Z,71.48
2023-02-07T23:09:10.452Z,72.18
2023-02-07T23:11:39.550Z,71.85
2023-02-07T23:14:07.819Z,71.68
2023-02-07T23:16:36.921Z,72.46
2023-02-07T23:19:11.129Z,72.62
2023-02-07T23:21:39.195Z,72.08
2023-02-07T23:24:07.476Z,72.18
2023-02-07T23:26:36.161Z,72.25
2023-02-07T23:29:05.266Z,72.18
2023-02-07T23:31:33.653Z,72.09
2023-02-07T23:34:02.122Z,72.09
2023-02-07T23:36:30.599Z,72.48
2023-02-07T23:38:58.671Z,72.34
2023-02-07T23:41:27.116Z,72.06
2023-02-07T23:43:57.161Z,72.68
2023-02-07T23:46:25.480Z,72.79
2023-02-07T23:48:53.921Z,72.72
2023-02-07T23:51:22.123Z,72.25
2023-02-07T23:53:50.782Z,72.20
2023-02-07T23:56:23.971Z,73.36
2023-02-07T23:58:53.212Z,73.02
